Terminal Aerodrome Forecast
Issued by NWS

Home | Current Version | Previous Version | Text Only | Print | Product List | Glossary Off
Versions: 1 2 3 4 5 6 7 8 9 10 11 12 13 14 15 16 17 18 19 20 21 22 23 24 25 26 27 28 29

804
FTUS43 KABR 271304 AAB
TAFATY
TAF AMD
KATY 271304Z 2713/2812 07017G24KT P6SM VCSH BKN010 OVC025
     FM271500 07022G31KT P6SM -SHRA OVC035
     FM280000 07020G28KT P6SM -SHRA OVC025
     FM280700 06015KT P6SM -SHRASN OVC020=

USA.gov is the U.S. government's official web portal to all federal, state and local government web resources and services.